Time;durP1;ratioP1;P1;durP2;ratioP2;P2;SDS_P1;SDS_P2;PMS_P1;PMS_P2;Temp;Humidity;BMP_temperature;BMP_pressure;BME280_temperature;BME280_humidity;BME280_pressure;Samples;Min_cycle;Max_cycle;Signal;HPM_P1;HPM_P2
2022/01/16 00:08:54;;;;;;;10.27;6.47;;;;;;;18.90;44.35;97538.28;13066576;22;20019;-54
2022/01/16 00:14:13;;;;;;;10.10;6.72;;;;;;;18.89;44.32;97558.25;13044849;22;20026;-53
2022/01/16 00:19:33;;;;;;;8.75;6.20;;;;;;;18.88;44.34;97551.28;13044735;22;20016;-54
2022/01/16 00:24:52;;;;;;;8.02;5.93;;;;;;;18.86;44.23;97513.78;13045340;22;20072;-54
2022/01/16 00:30:13;;;;;;;9.95;6.38;;;;;;;18.85;44.11;97514.88;13042613;22;20020;-53
2022/01/16 00:35:32;;;;;;;10.75;6.40;;;;;;;18.83;44.05;97516.28;13042415;22;20019;-53
2022/01/16 00:40:52;;;;;;;8.18;6.28;;;;;;;18.81;43.93;97508.47;13065780;22;20021;-54
2022/01/16 00:46:12;;;;;;;9.52;6.40;;;;;;;18.81;43.94;97483.38;13068145;22;20019;-54
2022/01/16 00:51:31;;;;;;;8.60;6.20;;;;;;;18.80;43.83;97514.16;13069800;22;20015;-54
2022/01/16 00:56:50;;;;;;;7.38;5.78;;;;;;;18.79;43.79;97526.84;13069667;22;20022;-54
2022/01/16 01:02:09;;;;;;;7.85;5.85;;;;;;;18.76;43.86;97539.06;13048509;22;20022;-54
2022/01/16 01:07:29;;;;;;;7.07;5.78;;;;;;;18.76;43.66;97514.75;13048057;22;20023;-54
2022/01/16 01:13:08;;;;;;;7.53;5.95;;;;;;;18.73;43.88;97528.03;13069301;22;20011;-54
2022/01/16 01:18:28;;;;;;;8.45;5.68;;;;;;;18.72;43.81;97548.06;13047936;22;20016;-54
2022/01/16 01:23:51;;;;;;;8.80;6.20;;;;;;;18.72;43.76;97539.97;13048401;22;20015;-54
2022/01/16 01:29:15;;;;;;;8.82;6.03;;;;;;;18.69;43.75;97511.66;13069494;22;20072;-54
2022/01/16 01:34:34;;;;;;;8.02;5.88;;;;;;;18.69;43.71;97443.38;13048212;22;20681;-54
2022/01/16 01:39:54;;;;;;;8.88;6.57;;;;;;;18.67;43.66;97430.19;13047977;22;20064;-53
2022/01/16 01:51:16;;;;;;;7.65;5.82;;;;;;;18.65;43.58;97507.97;13068525;22;20018;-53
2022/01/16 01:56:37;;;;;;;7.43;5.78;;;;;;;18.64;43.42;97494.75;13047477;22;20015;-53
2022/01/16 02:01:56;;;;;;;8.23;6.22;;;;;;;18.61;43.43;97498.88;13047913;22;20479;-53
2022/01/16 02:07:16;;;;;;;8.35;6.13;;;;;;;18.61;43.30;97471.88;13046779;22;20026;-53
2022/01/16 02:12:39;;;;;;;8.35;6.13;;;;;;;18.60;43.40;97475.66;13047297;22;20038;-54
2022/01/16 02:34:41;;;;;;;8.90;6.10;;;;;;;18.53;43.10;97465.28;13045021;22;20042;-54
2022/01/16 02:40:10;;;;;;;7.95;5.95;;;;;;;18.52;43.26;97468.28;13046909;22;20015;-54
2022/01/16 02:45:36;;;;;;;8.18;5.70;;;;;;;18.51;43.04;97443.22;13046708;22;20015;-53
2022/01/16 02:50:55;;;;;;;7.47;6.10;;;;;;;18.51;43.06;97445.13;13046389;22;20427;-54
2022/01/16 02:56:16;;;;;;;7.85;5.65;;;;;;;18.49;42.99;97447.31;13046306;22;20346;-53
2022/01/16 03:01:35;;;;;;;9.00;6.07;;;;;;;18.47;43.02;97449.50;13067547;22;20025;-54
2022/01/16 03:06:55;;;;;;;6.85;5.60;;;;;;;18.47;42.98;97444.13;13045110;22;20023;-54
2022/01/16 03:12:15;;;;;;;8.60;5.85;;;;;;;18.45;42.91;97430.13;13043911;22;20019;-54
2022/01/16 03:17:40;;;;;;;8.05;5.80;;;;;;;18.45;42.99;97430.13;13045899;22;20023;-54
2022/01/16 03:22:59;;;;;;;7.40;5.28;;;;;;;18.42;42.90;97415.31;13066740;22;20068;-54
2022/01/16 03:28:19;;;;;;;5.88;5.28;;;;;;;18.41;42.99;97396.78;13066928;22;20019;-54
2022/01/16 03:33:39;;;;;;;7.65;5.55;;;;;;;18.41;43.03;97396.78;13045790;22;20021;-54
2022/01/16 03:38:59;;;;;;;7.30;5.90;;;;;;;18.38;42.99;97393.56;13045609;22;20023;-54
2022/01/16 03:44:18;;;;;;;7.35;5.63;;;;;;;18.36;42.89;97384.97;13044728;22;20022;-53
2022/01/16 03:49:38;;;;;;;6.35;5.35;;;;;;;18.35;42.84;97382.59;13044848;22;20022;-53
2022/01/16 03:54:58;;;;;;;6.60;5.57;;;;;;;18.33;42.86;97376.69;13044719;22;20019;-53
2022/01/16 04:00:17;;;;;;;6.93;5.28;;;;;;;18.31;42.85;97371.59;13066010;22;20078;-54
2022/01/16 04:05:37;;;;;;;7.93;6.05;;;;;;;18.31;42.78;97376.19;13065718;22;20048;-53
2022/01/16 04:10:57;;;;;;;8.07;5.53;;;;;;;18.30;42.74;97383.47;13045090;22;20015;-54
2022/01/16 04:16:17;;;;;;;7.63;5.93;;;;;;;18.29;42.62;97371.09;13044324;22;20023;-53
2022/01/16 04:21:37;;;;;;;7.63;5.50;;;;;;;18.27;42.63;97365.22;13049149;22;20500;-53
2022/01/16 04:26:56;;;;;;;25.40;6.05;;;;;;;18.25;42.70;97362.03;13070490;22;20097;-54
2022/01/16 04:32:16;;;;;;;5.82;5.18;;;;;;;18.24;42.80;97365.81;13049273;22;20026;-54
2022/01/16 04:37:35;;;;;;;6.95;5.57;;;;;;;18.24;42.66;97373.88;13049035;22;20061;-53
2022/01/16 04:48:33;;;;;;;6.43;5.28;;;;;;;18.21;42.49;97350.25;13048810;22;20019;-54
2022/01/16 04:53:53;;;;;;;5.43;4.72;;;;;;;18.20;42.68;97343.22;13069844;22;20481;-54
2022/01/16 04:59:13;;;;;;;6.25;5.07;;;;;;;18.19;42.65;97344.34;13069626;22;20022;-53
2022/01/16 05:04:33;;;;;;;6.75;5.13;;;;;;;18.18;42.51;97334.66;13068836;22;20065;-54
2022/01/16 05:09:53;;;;;;;6.82;5.53;;;;;;;18.15;42.64;97316.38;13048692;22;20041;-54
2022/01/16 05:20:50;;;;;;;6.43;5.03;;;;;;;18.13;42.28;97294.28;13048345;22;20015;-53
2022/01/16 05:26:11;;;;;;;5.35;4.75;;;;;;;18.11;42.25;97280.31;13047305;22;20016;-52
2022/01/16 05:31:31;;;;;;;7.13;4.90;;;;;;;18.10;42.35;97278.75;13047343;22;20110;-54
2022/01/16 05:36:50;;;;;;;5.88;4.80;;;;;;;18.10;42.35;97279.53;13047960;22;20465;-53
2022/01/16 05:42:11;;;;;;;6.03;5.22;;;;;;;18.08;42.36;97265.56;13047214;22;20037;-54
2022/01/16 05:47:30;;;;;;;6.72;5.28;;;;;;;18.06;42.30;97275.84;13047240;22;20018;-54
2022/01/16 05:52:50;;;;;;;6.38;4.82;;;;;;;18.08;42.40;97270.16;13047208;22;20022;-53
2022/01/16 05:58:10;;;;;;;6.20;5.40;;;;;;;18.07;42.29;97271.25;13067632;22;20022;-53
2022/01/16 06:03:29;;;;;;;6.45;5.00;;;;;;;18.07;42.39;97263.97;13067493;22;20015;-54
2022/01/16 06:08:49;;;;;;;5.60;4.60;;;;;;;18.09;42.17;97263.66;13046714;22;20023;-53
2022/01/16 06:14:08;;;;;;;7.05;5.45;;;;;;;18.10;42.33;97262.56;13043230;22;20020;-53
2022/01/16 06:19:27;;;;;;;5.30;4.80;;;;;;;18.12;42.20;97249.56;13049452;22;20381;-53
2022/01/16 06:24:47;;;;;;;6.43;5.10;;;;;;;18.13;42.22;97262.75;13049986;22;20065;-54
2022/01/16 06:30:09;;;;;;;6.18;4.88;;;;;;;18.13;42.14;97270.84;13048080;22;20080;-53
2022/01/16 06:35:28;;;;;;;5.97;5.00;;;;;;;18.15;42.15;97281.31;13070320;22;20064;-53
2022/01/16 06:40:47;;;;;;;6.13;5.22;;;;;;;18.16;42.35;97282.91;13049471;22;20015;-54
2022/01/16 06:46:07;;;;;;;8.05;5.40;;;;;;;18.16;42.49;97282.91;13049157;22;20025;-58
2022/01/16 06:51:26;;;;;;;7.47;4.90;;;;;;;18.16;42.32;97277.53;13070033;22;20015;-54
2022/01/16 06:56:46;;;;;;;5.47;4.88;;;;;;;18.17;42.60;97276.44;13037677;22;20347;-54
2022/01/16 07:02:06;;;;;;;5.50;4.97;;;;;;;18.16;42.41;97269.44;13048755;22;20015;-55
2022/01/16 07:07:25;;;;;;;5.72;5.03;;;;;;;18.17;42.43;97276.44;13068209;22;20019;-54
2022/01/16 07:12:45;;;;;;;6.68;4.78;;;;;;;18.17;42.56;97290.72;13048022;22;20065;-55
2022/01/16 07:18:04;;;;;;;6.40;5.05;;;;;;;18.18;42.66;97280.72;13047586;22;20038;-55
2022/01/16 07:23:24;;;;;;;6.60;4.75;;;;;;;18.20;42.90;97291.22;13048027;22;20319;-54
2022/01/16 07:28:44;;;;;;;6.18;5.03;;;;;;;18.21;42.60;97300.88;13046862;22;20011;-54
2022/01/16 07:34:03;;;;;;;5.63;5.00;;;;;;;18.24;42.58;97305.69;13047651;22;20409;-55
2022/01/16 07:39:22;;;;;;;6.53;5.38;;;;;;;18.26;42.89;97282.69;13046650;22;20019;-53
2022/01/16 07:44:42;;;;;;;6.18;5.07;;;;;;;18.28;43.06;97283.19;13045590;22;20023;-55
2022/01/16 07:50:02;;;;;;;5.38;4.75;;;;;;;18.31;43.03;97282.59;13047366;22;20011;-53
2022/01/16 07:55:25;;;;;;;5.85;5.10;;;;;;;18.35;43.00;97294.38;13047158;22;20019;-52
2022/01/16 08:00:44;;;;;;;6.57;5.32;;;;;;;18.42;43.05;97301.25;13047277;22;20015;-54
2022/01/16 08:06:03;;;;;;;5.43;4.88;;;;;;;18.45;42.94;97285.25;13034610;22;20347;-55
2022/01/16 08:11:23;;;;;;;5.65;4.88;;;;;;;18.50;43.21;97287.84;13046226;22;20050;-55
2022/01/16 08:16:43;;;;;;;6.47;5.38;;;;;;;18.56;43.03;97280.41;13046725;22;20075;-55
2022/01/16 08:22:02;;;;;;;5.78;5.10;;;;;;;18.61;43.03;97274.09;13067917;22;20015;-55
2022/01/16 08:27:22;;;;;;;5.90;5.20;;;;;;;18.65;42.96;97256.97;13045612;22;20712;-53
2022/01/16 08:32:43;;;;;;;5.88;5.28;;;;;;;18.71;43.12;97252.25;13046268;22;20019;-53
2022/01/16 08:38:03;;;;;;;6.47;4.95;;;;;;;18.76;43.05;97246.75;13046556;22;20073;-55
2022/01/16 08:43:24;;;;;;;5.40;4.90;;;;;;;18.81;42.93;97238.53;13046973;22;20027;-55
2022/01/16 08:48:43;;;;;;;7.05;5.30;;;;;;;18.87;42.90;97242.69;13068037;22;20027;-54
2022/01/16 08:54:03;;;;;;;5.80;5.15;;;;;;;18.92;42.87;97233.69;13046683;22;20019;-55
2022/01/16 08:59:23;;;;;;;6.22;5.20;;;;;;;18.98;42.79;97224.34;13047187;22;20464;-55
2022/01/16 09:04:42;;;;;;;6.32;5.22;;;;;;;19.04;42.33;97233.91;13054712;22;20027;-54
2022/01/16 09:10:03;;;;;;;6.13;5.53;;;;;;;19.10;42.09;97248.06;13050324;22;20125;-54
2022/01/16 09:15:23;;;;;;;8.00;5.72;;;;;;;19.15;42.09;97243.34;13071405;22;20015;-55
2022/01/16 09:20:43;;;;;;;8.27;5.38;;;;;;;19.24;41.96;97250.69;13050591;22;20360;-55
2022/01/16 09:26:03;;;;;;;6.90;5.45;;;;;;;19.30;41.69;97257.53;13047059;22;20019;-53
2022/01/16 09:31:22;;;;;;;6.20;5.40;;;;;;;19.36;41.64;97262.47;13048012;22;20016;-54
2022/01/16 09:36:42;;;;;;;6.18;5.57;;;;;;;19.43;41.77;97270.16;13049038;22;20086;-55
2022/01/16 09:42:03;;;;;;;9.50;6.78;;;;;;;19.50;42.05;97272.41;13047381;22;20021;-55
2022/01/16 09:47:23;;;;;;;8.23;6.15;;;;;;;19.54;42.13;97282.28;13048912;22;20015;-56
2022/01/16 09:52:44;;;;;;;8.30;5.90;;;;;;;19.63;42.34;97286.94;13047634;22;20023;-56
2022/01/16 09:58:04;;;;;;;8.15;6.30;;;;;;;19.70;42.46;97287.28;13044198;22;20019;-56
2022/01/16 10:03:42;;;;;;;9.98;6.88;;;;;;;19.73;42.37;97268.53;13066411;22;20102;-54
2022/01/16 10:09:15;;;;;;;11.48;6.47;;;;;;;-146.19;100.00;65364.44;13044176;22;20011;-55
2022/01/16 10:14:36;;;;;;;9.35;6.97;;;;;;;19.85;42.26;97246.31;13044045;22;20064;-55
2022/01/16 10:20:02;;;;;;;9.82;6.50;;;;;;;19.90;42.00;97240.75;13046671;22;20021;-54
2022/01/16 10:25:43;;;;;;;9.20;6.85;;;;;;;19.95;42.51;97220.88;13037585;22;20015;-59
2022/01/16 10:31:03;;;;;;;7.22;5.95;;;;;;;20.02;42.36;97201.47;13068375;22;20094;-59
2022/01/16 10:36:36;;;;;;;7.10;6.40;;;;;;;20.06;42.66;97184.28;13046377;22;20510;-55
2022/01/16 10:42:12;;;;;;;7.32;6.20;;;;;;;20.11;42.75;97188.75;13044684;22;20019;-55
2022/01/16 10:47:43;;;;;;;7.68;5.68;;;;;;;20.12;42.63;97176.81;13046216;22;20022;-57
2022/01/16 10:53:05;;;;;;;6.72;5.97;;;;;;;20.15;42.78;97176.19;13046052;22;20474;-57
2022/01/16 10:58:30;;;;;;;8.10;5.90;;;;;;;20.19;42.67;97181.75;13044182;22;20447;-56
2022/01/16 11:03:53;;;;;;;49.65;18.60;;;;;;;20.24;43.14;97189.72;13046122;22;20015;-51
2022/01/16 11:09:27;;;;;;;62.97;24.98;;;;;;;20.24;43.14;97189.72;13046006;22;20060;-53
2022/01/16 11:14:47;;;;;;;59.67;22.88;;;;;;;20.29;45.59;97197.69;13044773;22;20380;-55
2022/01/16 11:20:08;;;;;;;16.85;13.15;;;;;;;-146.19;100.00;65364.44;13040951;22;20020;-56
2022/01/16 11:25:34;;;;;;;29.90;14.68;;;;;;;19.60;38.10;97193.75;13061526;22;20043;-56
2022/01/16 11:30:59;;;;;;;21.02;12.05;;;;;;;19.82;39.76;97189.38;13041341;22;20037;-56
2022/01/16 11:36:21;;;;;;;22.90;11.50;;;;;;;19.97;39.83;97171.88;13065116;22;20026;-56
2022/01/16 11:41:52;;;;;;;21.27;11.23;;;;;;;20.07;40.49;97168.84;13043164;22;20015;-56
2022/01/16 11:47:14;;;;;;;17.65;9.75;;;;;;;20.13;41.12;97162.16;13044539;22;20011;-54
2022/01/16 11:52:44;;;;;;;14.40;8.93;;;;;;;20.18;41.75;97175.53;13063395;22;20019;-56
2022/01/16 11:58:03;;;;;;;14.10;8.15;;;;;;;20.20;41.53;97167.13;13042261;22;20041;-54
2022/01/16 12:03:34;;;;;;;13.52;8.18;;;;;;;20.21;41.65;97158.69;13060753;22;20015;-54
2022/01/16 12:08:56;;;;;;;11.70;7.88;;;;;;;20.24;41.71;97162.66;13038802;22;20030;-52
2022/01/16 12:14:46;;;;;;;11.23;7.78;;;;;;;20.25;41.91;97165.03;13061046;22;20019;-54
2022/01/16 12:20:12;;;;;;;11.50;7.25;;;;;;;20.28;41.91;97169.00;13039222;22;20015;-51
2022/01/16 12:25:39;;;;;;;12.40;7.20;;;;;;;20.28;41.85;97186.03;13040031;22;20094;-55
2022/01/16 12:31:04;;;;;;;10.45;6.90;;;;;;;20.30;42.05;97183.81;13060728;22;20022;-52
2022/01/16 12:36:34;;;;;;;10.90;6.57;;;;;;;20.29;42.11;97170.63;13060590;22;20023;-54
2022/01/16 12:41:55;;;;;;;10.30;7.00;;;;;;;20.30;41.89;97170.28;13042694;22;20015;-54
2022/01/16 12:47:15;;;;;;;9.57;6.45;;;;;;;20.30;42.01;97167.56;13044331;22;20015;-54
2022/01/16 12:52:45;;;;;;;8.60;6.13;;;;;;;20.30;41.93;97172.97;13063664;22;20016;-54
2022/01/16 12:58:21;;;;;;;8.48;6.47;;;;;;;20.30;42.07;97172.97;13041341;22;20091;-54
2022/01/16 13:03:43;;;;;;;8.60;6.30;;;;;;;20.31;41.95;97161.06;13063404;22;20022;-56
2022/01/16 13:09:06;;;;;;;8.32;6.18;;;;;;;20.32;41.81;97148.31;13043840;22;20026;-55
2022/01/16 13:14:37;;;;;;;8.55;6.20;;;;;;;20.32;41.85;97143.69;13047596;22;20015;-56
2022/01/16 13:19:59;;;;;;;8.48;5.90;;;;;;;20.32;42.66;97157.22;13048270;22;20015;-56
2022/01/16 13:25:19;;;;;;;9.40;5.97;;;;;;;20.34;43.05;97167.72;13066822;22;20019;-55
2022/01/16 13:30:39;;;;;;;11.00;6.53;;;;;;;20.34;43.00;97167.72;13047293;22;20068;-56
2022/01/16 13:35:58;;;;;;;9.82;5.68;;;;;;;20.32;42.61;97165.34;13045740;22;20026;-56
2022/01/16 13:41:18;;;;;;;9.35;6.65;;;;;;;20.30;42.79;97164.88;13042796;22;20482;-55
2022/01/16 13:46:37;;;;;;;11.02;8.38;;;;;;;20.30;43.38;97169.50;13067318;22;20028;-55
2022/01/16 13:51:59;;;;;;;14.80;8.13;;;;;;;20.30;44.67;97183.00;13043845;22;20145;-54
2022/01/16 13:57:32;;;;;;;13.02;7.53;;;;;;;20.29;44.96;97174.13;13041858;22;20304;-55
2022/01/16 14:02:51;;;;;;;14.90;7.28;;;;;;;20.30;45.16;97177.59;13043534;22;20022;-55
2022/01/16 14:08:39;;;;;;;13.25;6.80;;;;;;;20.29;45.34;97192.25;13044589;22;20026;-55
2022/01/16 14:14:00;;;;;;;10.27;6.55;;;;;;;20.28;45.13;97209.59;13065922;22;20015;-54
2022/01/16 14:19:25;;;;;;;11.35;6.25;;;;;;;20.27;44.73;97202.59;13045961;22;20019;-53
2022/01/16 14:24:49;;;;;;;8.02;6.00;;;;;;;20.25;44.74;97221.06;13043529;22;20320;-54
2022/01/16 14:30:10;;;;;;;12.85;6.10;;;;;;;20.24;44.70;97220.25;13044831;22;20016;-54
2022/01/16 14:35:31;;;;;;;8.95;5.70;;;;;;;20.24;44.75;97225.66;13065582;22;20019;-54
2022/01/16 14:40:51;;;;;;;7.22;5.13;;;;;;;20.22;44.57;97227.09;13043817;22;20015;-53
2022/01/16 14:46:10;;;;;;;7.35;5.00;;;;;;;20.22;44.52;97246.84;13020796;22;20011;-54
2022/01/16 14:51:29;;;;;;;6.82;5.20;;;;;;;20.21;44.75;97256.06;13045345;22;20037;-55
2022/01/16 14:56:49;;;;;;;8.00;5.18;;;;;;;20.18;44.73;97251.28;13043938;22;20016;-54
2022/01/16 15:02:08;;;;;;;7.05;4.90;;;;;;;20.19;45.33;97258.31;13043891;22;20072;-53
2022/01/16 15:07:28;;;;;;;39.58;14.30;;;;;;;20.19;46.51;97266.41;13043508;22;20023;-55
2022/01/16 15:12:47;;;;;;;21.02;9.10;;;;;;;20.20;46.53;97265.28;13043467;22;20065;-55
2022/01/16 15:18:11;;;;;;;19.23;8.18;;;;;;;20.19;46.13;97277.25;13040821;22;20114;-56
2022/01/16 15:23:34;;;;;;;16.23;7.45;;;;;;;20.19;46.69;97296.19;13044584;22;20316;-56
2022/01/16 15:28:54;;;;;;;17.35;7.43;;;;;;;20.19;46.10;97300.78;13044614;22;20038;-55
2022/01/16 15:34:13;;;;;;;18.10;7.05;;;;;;;20.17;45.74;97306.53;13044122;22;20035;-52
2022/01/16 15:39:33;;;;;;;10.98;8.43;;;;;;;19.70;35.64;97306.19;13064863;22;20015;-52
2022/01/16 15:44:53;;;;;;;9.85;6.18;;;;;;;19.67;41.28;97306.81;13045603;22;20652;-55
2022/01/16 15:50:13;;;;;;;8.23;5.45;;;;;;;19.76;41.98;97304.97;13046652;22;20011;-54
2022/01/16 15:55:33;;;;;;;11.07;6.65;;;;;;;19.82;41.47;97311.03;13046164;22;20554;-54
2022/01/16 16:00:53;;;;;;;10.20;5.45;;;;;;;19.83;41.60;97326.94;13045058;22;20375;-55
2022/01/16 16:06:13;;;;;;;11.43;8.60;;;;;;;19.69;37.46;97335.13;13063530;22;20090;-54
2022/01/16 16:11:32;;;;;;;7.82;5.00;;;;;;;19.66;40.51;97337.66;13064521;22;20064;-54
2022/01/16 16:16:51;;;;;;;8.75;6.00;;;;;;;19.71;41.47;97341.03;13046162;22;20663;-55
2022/01/16 16:22:12;;;;;;;7.07;5.50;;;;;;;19.78;41.90;97346.00;13047815;22;20019;-55
2022/01/16 16:27:32;;;;;;;8.30;4.97;;;;;;;19.83;42.34;97348.56;13069222;22;20067;-51
2022/01/16 16:32:52;;;;;;;5.75;4.57;;;;;;;19.87;42.71;97333.31;13047640;22;20038;-53
2022/01/16 16:38:11;;;;;;;5.60;4.70;;;;;;;19.90;43.10;97343.50;13048280;22;20050;-53
2022/01/16 16:43:30;;;;;;;6.20;4.28;;;;;;;19.93;43.52;97345.59;13048048;22;20038;-51
2022/01/16 16:48:50;;;;;;;5.20;4.13;;;;;;;19.95;43.82;97335.25;13067669;22;20061;-52
2022/01/16 16:54:09;;;;;;;6.68;4.05;;;;;;;19.98;43.96;97349.25;13046386;22;20026;-54
2022/01/16 16:59:30;;;;;;;6.03;4.35;;;;;;;20.01;43.92;97354.81;13045964;22;20015;-57
2022/01/16 17:04:50;;;;;;;5.10;4.25;;;;;;;20.05;44.43;97355.00;13045810;22;20023;-54
2022/01/16 17:10:10;;;;;;;5.68;4.30;;;;;;;20.08;44.63;97360.56;13045920;22;20019;-55
2022/01/16 17:15:30;;;;;;;4.95;3.83;;;;;;;20.13;44.88;97367.75;13066024;22;20015;-55
2022/01/16 17:20:50;;;;;;;5.40;3.83;;;;;;;20.18;44.46;97364.13;13045802;22;20086;-53
2022/01/16 17:26:09;;;;;;;4.63;3.70;;;;;;;20.20;44.53;97376.22;13065689;22;20453;-55
2022/01/16 17:31:29;;;;;;;4.97;4.07;;;;;;;20.22;44.41;97363.16;13045340;22;20041;-54
2022/01/16 17:36:48;;;;;;;5.20;3.42;;;;;;;20.24;44.57;97374.47;13066412;22;20015;-54
2022/01/16 17:42:08;;;;;;;4.35;3.40;;;;;;;20.25;44.37;97359.84;13065874;22;20012;-55
2022/01/16 17:47:27;;;;;;;5.30;3.25;;;;;;;20.27;44.51;97364.94;13065620;22;20019;-54
2022/01/16 17:52:48;;;;;;;4.15;3.35;;;;;;;20.27;44.47;97373.06;13044883;22;20072;-55
2022/01/16 17:58:07;;;;;;;4.72;3.55;;;;;;;20.29;44.71;97374.34;13044992;22;20315;-55
2022/01/16 18:03:26;;;;;;;4.95;3.40;;;;;;;20.31;44.66;97384.84;13045659;22;20041;-56
2022/01/16 18:08:46;;;;;;;4.93;3.40;;;;;;;20.32;45.07;97392.63;13065783;22;20094;-55
2022/01/16 18:14:06;;;;;;;4.82;3.50;;;;;;;20.32;45.33;97405.38;13064804;22;20011;-56
2022/01/16 18:19:26;;;;;;;6.47;3.10;;;;;;;20.32;45.68;97418.88;13044949;22;20019;-55
2022/01/16 18:24:46;;;;;;;5.82;3.30;;;;;;;20.32;45.98;97416.19;13043969;22;20028;-57
2022/01/16 18:30:06;;;;;;;3.67;2.70;;;;;;;20.31;46.24;97420.81;13043757;22;20020;-57
2022/01/16 18:35:25;;;;;;;4.68;3.17;;;;;;;20.33;46.38;97426.69;13044358;22;20019;-54
2022/01/16 18:40:45;;;;;;;3.97;3.17;;;;;;;20.32;46.50;97427.00;13065819;22;20015;-57
2022/01/16 18:46:05;;;;;;;4.57;3.30;;;;;;;20.33;46.54;97421.28;13064726;22;20044;-58
2022/01/16 18:51:27;;;;;;;3.28;2.97;;;;;;;20.32;46.52;97427.00;13044575;22;20015;-55
2022/01/16 18:56:47;;;;;;;5.30;3.13;;;;;;;20.33;46.44;97428.63;13043624;22;20015;-56
2022/01/16 19:02:07;;;;;;;3.17;2.88;;;;;;;20.32;46.63;97427.78;13042905;22;20019;-57
2022/01/16 19:07:27;;;;;;;3.50;3.13;;;;;;;20.33;46.71;97428.63;13043440;22;20022;-56
2022/01/16 19:12:46;;;;;;;3.60;2.70;;;;;;;20.31;46.76;97422.72;13044104;22;20015;-55
2022/01/16 19:18:06;;;;;;;4.93;2.70;;;;;;;20.30;46.64;97426.53;13043483;22;20015;-55
2022/01/16 19:23:25;;;;;;;4.05;3.03;;;;;;;20.30;46.80;97437.34;13044600;22;20411;-58
2022/01/16 19:28:45;;;;;;;5.78;3.10;;;;;;;20.30;46.79;97440.06;13043414;22;20320;-54
2022/01/16 19:34:04;;;;;;;2.95;2.60;;;;;;;20.30;46.67;97443.56;13065055;22;20094;-55
2022/01/16 19:39:24;;;;;;;3.85;2.90;;;;;;;20.28;46.61;97440.34;13064551;22;20043;-56
2022/01/16 19:44:44;;;;;;;3.25;2.60;;;;;;;20.28;46.65;97445.78;13042791;22;20015;-55
2022/01/16 19:50:05;;;;;;;3.75;2.67;;;;;;;20.29;46.76;97450.09;13064308;22;20043;-56
2022/01/16 19:55:24;;;;;;;3.33;2.60;;;;;;;20.27;46.77;97459.63;13042057;22;20015;-56
2022/01/16 20:00:47;;;;;;;6.28;3.05;;;;;;;20.26;47.11;97472.34;13042200;22;20330;-55
2022/01/16 20:06:07;;;;;;;4.05;2.67;;;;;;;20.26;47.10;97463.44;13042432;22;20023;-57
2022/01/16 20:11:29;;;;;;;3.13;2.60;;;;;;;20.25;47.34;97467.28;13064078;22;20017;-55
2022/01/16 20:16:49;;;;;;;3.92;2.60;;;;;;;20.23;47.29;97470.28;13041835;22;20371;-56
2022/01/16 20:22:09;;;;;;;2.67;2.42;;;;;;;20.23;47.60;97469.47;13041811;22;20019;-55
2022/01/16 20:27:29;;;;;;;5.63;2.70;;;;;;;20.22;47.51;97462.47;13040095;22;20022;-55
2022/01/16 20:32:48;;;;;;;4.53;2.80;;;;;;;20.21;47.45;97479.78;13063484;22;20015;-55
2022/01/16 20:38:09;;;;;;;4.57;2.67;;;;;;;20.20;47.49;97479.00;13042884;22;20815;-58
2022/01/16 20:43:30;;;;;;;4.82;2.85;;;;;;;20.19;47.43;97480.13;13019408;22;20020;-57
2022/01/16 20:48:50;;;;;;;6.65;3.42;;;;;;;20.18;47.44;97483.94;13041998;22;20011;-58
2022/01/16 20:54:10;;;;;;;5.45;2.55;;;;;;;20.17;47.26;97486.94;13019185;22;20019;-55
2022/01/16 20:59:29;;;;;;;4.85;2.72;;;;;;;20.15;47.39;97487.28;13062347;22;20151;-55
2022/01/16 21:04:49;;;;;;;3.88;2.58;;;;;;;20.14;47.72;97485.66;13045301;22;20031;-55
2022/01/16 21:10:08;;;;;;;3.60;2.75;;;;;;;20.11;46.44;97495.22;13045461;22;20015;-55
2022/01/16 21:15:28;;;;;;;4.38;2.90;;;;;;;20.10;46.75;97493.59;13066223;22;20086;-54
2022/01/16 21:20:51;;;;;;;5.32;2.83;;;;;;;20.09;46.82;97491.19;13045295;22;20021;-53
2022/01/16 21:26:10;;;;;;;3.42;2.80;;;;;;;20.08;47.08;97495.03;13044673;22;20080;-53
2022/01/16 21:31:29;;;;;;;3.53;2.28;;;;;;;20.08;47.14;97484.22;13043401;22;20520;-54
2022/01/16 21:36:49;;;;;;;4.05;2.42;;;;;;;20.08;47.18;97489.63;13064172;22;20015;-51
2022/01/16 21:42:11;;;;;;;4.82;2.30;;;;;;;20.05;46.99;97487.53;13042956;22;20026;-53
2022/01/16 21:47:30;;;;;;;3.28;2.47;;;;;;;20.03;46.99;97481.63;13043674;22;20058;-51
2022/01/16 21:52:51;;;;;;;3.40;2.45;;;;;;;20.02;47.22;97485.47;13039184;22;20023;-54
2022/01/16 21:58:12;;;;;;;3.78;2.53;;;;;;;20.02;47.30;97502.47;13062764;22;20016;-55
2022/01/16 22:03:31;;;;;;;5.03;2.33;;;;;;;20.01;47.12;97516.31;13042549;22;20053;-56
2022/01/16 22:08:51;;;;;;;2.85;2.53;;;;;;;20.00;47.11;97517.44;13043659;22;20015;-55
2022/01/16 22:14:11;;;;;;;3.13;2.40;;;;;;;19.99;47.08;97515.81;13043879;22;20022;-54
2022/01/16 22:19:30;;;;;;;3.25;2.60;;;;;;;19.98;47.07;97504.22;13044012;22;20019;-53
2022/01/16 22:24:50;;;;;;;4.70;2.25;;;;;;;19.98;47.01;97508.81;13043071;22;20034;-56
2022/01/16 22:30:11;;;;;;;2.97;2.28;;;;;;;19.94;46.98;97514.84;13063985;22;20047;-55
2022/01/16 22:35:31;;;;;;;3.60;2.33;;;;;;;19.93;47.04;97524.06;13046017;22;20499;-55
2022/01/16 22:40:50;;;;;;;4.05;2.45;;;;;;;19.92;46.96;97519.75;13066451;22;20015;-55
2022/01/16 22:46:10;;;;;;;3.30;2.28;;;;;;;19.92;46.82;97517.06;13046126;22;20022;-55
2022/01/16 22:51:29;;;;;;;3.60;2.22;;;;;;;19.89;47.03;97508.75;13046286;22;20420;-55
2022/01/16 22:56:49;;;;;;;4.18;2.50;;;;;;;19.88;46.83;97515.28;13044938;22;20487;-56
2022/01/16 23:02:08;;;;;;;3.38;2.25;;;;;;;19.86;46.88;97493.16;13066072;22;20026;-55
2022/01/16 23:07:28;;;;;;;2.97;1.85;;;;;;;19.85;47.07;97481.53;13044838;22;20023;-56
2022/01/16 23:12:48;;;;;;;3.70;2.55;;;;;;;19.83;46.83;97475.63;13045176;22;20375;-56
2022/01/16 23:18:07;;;;;;;3.25;2.10;;;;;;;19.82;46.90;97487.56;13045326;22;20338;-55
2022/01/16 23:23:27;;;;;;;2.92;2.28;;;;;;;19.80;46.72;97489.78;13044627;22;20015;-55
2022/01/16 23:28:46;;;;;;;2.85;2.13;;;;;;;19.79;46.92;97479.28;13044123;22;20022;-55
2022/01/16 23:34:05;;;;;;;3.80;2.10;;;;;;;19.77;46.89;97484.19;13065981;22;20015;-55
2022/01/16 23:39:25;;;;;;;4.80;2.25;;;;;;;19.74;46.64;97493.72;13044674;22;20495;-55
2022/01/16 23:44:45;;;;;;;2.55;2.10;;;;;;;19.72;46.72;97493.25;13044646;22;20439;-56
2022/01/16 23:50:10;;;;;;;2.83;1.90;;;;;;;19.72;46.49;97482.44;13044163;22;20026;-55
2022/01/16 23:55:29;;;;;;;2.78;2.28;;;;;;;19.70;46.67;97466.47;13064911;22;20019;-54
